Time;durP1;ratioP1;P1;durP2;ratioP2;P2;SDS_P1;SDS_P2;PMS_P1;PMS_P2;Temp;Humidity;BMP_temperature;BMP_pressure;BME280_temperature;BME280_humidity;BME280_pressure;Samples;Min_cycle;Max_cycle;Signal;HPM_P1;HPM_P2
2023/04/13 00:01:55;;;;;;;3.97;0.98;;;7.50;99.90;;;;;;6191647;23;20055;-87
2023/04/13 00:04:25;;;;;;;3.70;0.90;;;7.50;99.90;;;;;;6191246;23;20446;-89
2023/04/13 00:06:51;;;;;;;3.13;1.00;;;7.50;99.90;;;;;;6191051;23;20058;-88
2023/04/13 00:09:19;;;;;;;3.05;1.10;;;7.50;99.90;;;;;;6190829;23;20004;-89
2023/04/13 00:11:45;;;;;;;6.03;1.25;;;7.40;99.90;;;;;;6191304;23;20045;-88
2023/04/13 00:14:15;;;;;;;2.00;0.80;;;7.50;99.90;;;;;;6191369;23;20001;-88
2023/04/13 00:16:41;;;;;;;2.28;0.88;;;7.40;99.90;;;;;;6191069;23;20035;-88
2023/04/13 00:19:06;;;;;;;4.13;0.80;;;7.40;99.90;;;;;;6191301;23;20009;-88
2023/04/13 00:21:39;;;;;;;3.15;1.05;;;7.40;99.90;;;;;;6191168;23;20008;-88
2023/04/13 00:24:05;;;;;;;4.55;1.17;;;7.40;99.90;;;;;;6191114;23;20007;-88
2023/04/13 00:26:31;;;;;;;3.60;0.93;;;7.40;99.90;;;;;;6191193;23;20001;-88
2023/04/13 00:28:57;;;;;;;2.78;0.90;;;7.40;99.90;;;;;;6191283;23;20087;-88
2023/04/13 00:31:23;;;;;;;2.85;0.77;;;7.40;99.90;;;;;;6191234;23;20062;-88
2023/04/13 00:33:48;;;;;;;8.48;0.80;;;7.40;99.90;;;;;;6190860;23;19997;-90
2023/04/13 00:36:16;;;;;;;1.30;0.65;;;7.40;99.90;;;;;;6191598;23;20366;-88
2023/04/13 00:38:43;;;;;;;1.90;0.90;;;7.40;99.90;;;;;;6191197;23;20001;-89
2023/04/13 00:41:11;;;;;;;2.13;0.80;;;7.50;99.90;;;;;;6191381;23;20005;-87
2023/04/13 00:43:41;;;;;;;3.28;0.75;;;7.40;99.90;;;;;;6191199;23;20442;-88
2023/04/13 00:46:07;;;;;;;3.53;1.05;;;7.40;99.90;;;;;;6191767;23;20031;-87
2023/04/13 00:48:34;;;;;;;3.50;0.90;;;7.40;99.90;;;;;;6191563;23;20005;-87
2023/04/13 00:51:01;;;;;;;6.25;1.10;;;7.40;99.90;;;;;;6190543;23;20013;-88
2023/04/13 00:53:32;;;;;;;2.55;0.93;;;7.40;99.90;;;;;;6190975;23;20009;-88
2023/04/13 00:56:08;;;;;;;3.25;0.90;;;7.40;99.90;;;;;;6166427;23;20005;-87
2023/04/13 00:58:36;;;;;;;5.03;1.30;;;7.40;99.90;;;;;;6191303;23;20411;-88
2023/04/13 01:01:10;;;;;;;3.38;0.90;;;7.30;99.90;;;;;;6190709;23;20080;-88
2023/04/13 01:03:41;;;;;;;2.92;1.10;;;7.30;99.90;;;;;;6191646;23;20016;-87
2023/04/13 01:06:59;;;;;;;3.05;1.05;;;7.30;99.90;;;;;;6191999;23;20013;-86
2023/04/13 01:09:40;;;;;;;2.60;0.75;;;7.30;99.90;;;;;;6133145;23;20461;-88
2023/04/13 01:12:38;;;;;;;3.25;1.15;;;7.30;99.90;;;;;;6191065;23;20012;-87
2023/04/13 01:15:11;;;;;;;7.43;1.77;;;7.20;99.90;;;;;;6190086;23;20011;-87
2023/04/13 01:17:43;;;;;;;4.15;1.15;;;7.20;99.90;;;;;;6194007;23;20001;-87
2023/04/13 01:20:14;;;;;;;2.75;1.20;;;7.20;99.90;;;;;;6194020;23;20427;-87
2023/04/13 01:23:11;;;;;;;5.55;1.15;;;7.20;99.90;;;;;;6193534;23;20007;-89
2023/04/13 01:25:51;;;;;;;3.00;1.25;;;7.20;99.90;;;;;;6218774;23;20001;-87
2023/04/13 01:28:20;;;;;;;4.47;1.25;;;7.20;99.90;;;;;;6193867;23;20111;-88
2023/04/13 01:30:48;;;;;;;4.28;1.23;;;7.20;99.90;;;;;;6193441;23;20005;-87
2023/04/13 01:33:16;;;;;;;6.22;1.27;;;7.20;99.90;;;;;;6193241;23;20004;-88
2023/04/13 01:35:43;;;;;;;5.07;1.30;;;7.30;99.90;;;;;;6193484;23;20004;-88
2023/04/13 01:38:11;;;;;;;2.85;1.05;;;7.30;99.90;;;;;;6193459;23;20027;-87
2023/04/13 01:40:39;;;;;;;5.25;1.65;;;7.30;99.90;;;;;;6193146;23;20114;-88
2023/04/13 01:43:08;;;;;;;7.07;1.80;;;7.30;99.90;;;;;;6194804;23;20027;-89
2023/04/13 01:46:00;;;;;;;4.68;1.10;;;7.30;99.90;;;;;;6194038;23;20005;-88
2023/04/13 01:48:28;;;;;;;6.30;1.20;;;7.30;99.90;;;;;;6188798;23;20391;-87
2023/04/13 01:51:33;;;;;;;4.13;1.17;;;7.40;99.90;;;;;;6194342;23;20460;-87
2023/04/13 01:54:11;;;;;;;3.15;1.20;;;7.40;99.90;;;;;;6215108;22;20001;-90
2023/04/13 01:56:40;;;;;;;6.72;1.30;;;7.40;99.90;;;;;;6244639;22;20023;-87
2023/04/13 01:59:07;;;;;;;5.07;1.42;;;7.50;99.90;;;;;;6208204;23;20013;-87
2023/04/13 02:01:32;;;;;;;3.55;0.98;;;7.50;99.90;;;;;;6193366;23;20012;-87
2023/04/13 02:04:00;;;;;;;3.47;1.20;;;7.50;99.90;;;;;;6193257;23;20060;-87
2023/04/13 02:06:25;;;;;;;4.18;1.13;;;7.40;99.90;;;;;;6193505;23;20087;-87
2023/04/13 02:08:52;;;;;;;4.45;1.05;;;7.50;99.90;;;;;;6193431;23;20004;-88
2023/04/13 02:11:18;;;;;;;4.40;1.10;;;7.50;99.90;;;;;;6192636;23;20018;-89
2023/04/13 02:13:46;;;;;;;3.53;0.90;;;7.50;99.90;;;;;;6192700;23;20004;-87
2023/04/13 02:16:12;;;;;;;8.95;1.27;;;7.50;99.90;;;;;;6193054;23;20753;-88
2023/04/13 02:18:39;;;;;;;3.80;1.15;;;7.50;99.90;;;;;;6192673;23;20035;-87
2023/04/13 02:21:08;;;;;;;6.32;1.17;;;7.50;99.90;;;;;;6168047;23;20043;-88
2023/04/13 02:23:35;;;;;;;2.88;1.10;;;7.50;99.90;;;;;;6192746;23;20000;-89
2023/04/13 02:26:01;;;;;;;2.47;0.93;;;7.50;99.90;;;;;;6219178;23;20007;-87
2023/04/13 02:28:29;;;;;;;5.45;1.17;;;7.50;99.90;;;;;;6217520;23;20008;-88
2023/04/13 02:30:55;;;;;;;5.45;1.38;;;7.60;99.90;;;;;;6192919;23;20015;-91
2023/04/13 02:33:21;;;;;;;4.18;1.65;;;7.60;99.90;;;;;;6219458;23;20007;-88
2023/04/13 02:35:48;;;;;;;5.10;1.40;;;7.60;99.90;;;;;;6192897;23;20032;-88
2023/04/13 02:38:14;;;;;;;4.40;1.40;;;7.60;99.90;;;;;;6192602;23;20335;-88
2023/04/13 02:40:41;;;;;;;5.82;1.40;;;7.50;99.90;;;;;;6192424;23;20035;-88
2023/04/13 02:43:11;;;;;;;5.00;1.20;;;7.60;99.90;;;;;;6168236;23;20039;-87
2023/04/13 02:45:38;;;;;;;5.70;1.13;;;7.60;99.90;;;;;;6193504;23;20013;-88
2023/04/13 02:48:04;;;;;;;3.50;1.20;;;7.60;99.90;;;;;;6191866;23;20001;-87
2023/04/13 02:53:54;;;;;;;6.65;1.13;;;7.60;99.90;;;;;;6218664;23;20055;-88
2023/04/13 02:56:21;;;;;;;5.25;1.15;;;7.60;99.90;;;;;;6192398;23;20427;-87
2023/04/13 02:58:47;;;;;;;3.90;0.98;;;7.60;99.90;;;;;;6192166;23;20050;-89
2023/04/13 03:01:13;;;;;;;2.55;0.77;;;7.60;99.90;;;;;;6192626;23;20374;-87
2023/04/13 03:03:40;;;;;;;3.55;0.90;;;7.60;99.90;;;;;;6168105;23;20001;-87
2023/04/13 03:06:06;;;;;;;5.00;1.35;;;7.60;99.90;;;;;;6192485;23;20012;-87
2023/04/13 03:08:32;;;;;;;2.70;0.98;;;7.60;99.90;;;;;;6167481;23;20001;-88
2023/04/13 03:10:58;;;;;;;3.53;1.08;;;7.60;99.90;;;;;;6193657;23;20024;-87
2023/04/13 03:13:23;;;;;;;3.00;1.15;;;7.50;99.90;;;;;;6197822;23;20005;-86
2023/04/13 03:15:49;;;;;;;5.05;1.20;;;7.60;99.90;;;;;;6207598;23;19985;-88
2023/04/13 03:18:15;;;;;;;4.22;1.08;;;7.50;99.90;;;;;;6215638;23;20060;-86
2023/04/13 03:20:42;;;;;;;3.72;1.08;;;7.50;99.90;;;;;;6214483;23;20007;-87
2023/04/13 03:23:08;;;;;;;2.75;0.98;;;7.50;99.90;;;;;;6192569;23;20015;-86
2023/04/13 03:25:34;;;;;;;5.07;1.20;;;7.50;99.90;;;;;;6216338;23;19985;-87
2023/04/13 03:28:00;;;;;;;7.32;1.45;;;7.50;99.90;;;;;;6207222;23;19997;-87
2023/04/13 03:30:25;;;;;;;6.20;1.35;;;7.40;99.90;;;;;;6174495;23;20004;-88
2023/04/13 03:32:51;;;;;;;3.25;1.27;;;7.50;99.90;;;;;;6168660;23;20498;-87
2023/04/13 03:35:17;;;;;;;3.25;1.45;;;7.40;99.90;;;;;;6167108;23;20012;-87
2023/04/13 03:37:43;;;;;;;5.22;1.58;;;7.40;99.90;;;;;;6192031;23;20004;-87
2023/04/13 03:40:12;;;;;;;5.60;1.35;;;7.40;99.90;;;;;;6192224;23;20066;-87
2023/04/13 03:42:38;;;;;;;4.10;1.48;;;7.40;99.90;;;;;;6192281;23;20022;-87
2023/04/13 03:45:05;;;;;;;3.53;1.25;;;7.40;99.90;;;;;;6192605;23;20032;-88
2023/04/13 03:47:31;;;;;;;5.05;1.70;;;7.40;99.90;;;;;;6192008;23;20005;-88
2023/04/13 03:49:57;;;;;;;5.30;1.65;;;7.40;99.90;;;;;;6191742;23;20015;-88
2023/04/13 03:52:22;;;;;;;4.57;1.60;;;7.40;99.90;;;;;;6218757;23;20003;-87
2023/04/13 03:54:48;;;;;;;4.35;1.40;;;7.40;99.90;;;;;;6192431;23;20001;-87
2023/04/13 03:57:14;;;;;;;5.70;2.63;;;7.40;99.90;;;;;;6167612;23;20092;-87
2023/04/13 03:59:39;;;;;;;4.05;1.60;;;7.40;99.90;;;;;;6192878;23;20016;-87
2023/04/13 04:02:06;;;;;;;3.45;1.58;;;7.30;99.90;;;;;;6167905;23;20327;-89
2023/04/13 04:04:31;;;;;;;5.68;1.70;;;7.40;99.90;;;;;;6179000;23;20111;-88
2023/04/13 04:06:58;;;;;;;6.13;1.60;;;7.30;99.90;;;;;;6192634;23;20395;-89
2023/04/13 04:09:24;;;;;;;5.25;1.90;;;7.30;99.90;;;;;;6192922;23;20009;-88
2023/04/13 04:11:50;;;;;;;3.85;1.63;;;7.30;99.90;;;;;;6167884;23;20051;-87
2023/04/13 04:14:19;;;;;;;5.65;2.10;;;7.30;99.90;;;;;;6217509;23;20032;-87
2023/04/13 04:16:45;;;;;;;4.18;1.70;;;7.30;99.90;;;;;;6192205;23;19997;-87
2023/04/13 04:19:10;;;;;;;2.35;1.00;;;7.20;99.90;;;;;;6168081;23;20036;-89
2023/04/13 04:21:36;;;;;;;5.38;1.52;;;7.20;99.90;;;;;;6192572;23;20013;-88
2023/04/13 04:24:05;;;;;;;3.92;1.40;;;7.20;99.90;;;;;;6192595;23;20005;-87
2023/04/13 04:26:31;;;;;;;4.53;1.50;;;7.20;99.90;;;;;;6213292;23;20062;-87
2023/04/13 04:29:03;;;;;;;8.50;1.35;;;7.20;99.90;;;;;;6218219;22;19985;-87
2023/04/13 04:31:34;;;;;;;4.93;1.52;;;7.20;99.90;;;;;;6212419;23;20481;-88
2023/04/13 04:34:00;;;;;;;;;;;7.20;99.90;;;;;;6193003;23;19997;-88
2023/04/13 04:36:26;;;;;;;9.23;1.88;;;7.20;99.90;;;;;;6191571;23;20294;-88
2023/04/13 04:38:56;;;;;;;7.55;1.73;;;7.20;99.90;;;;;;6191887;23;20039;-87
2023/04/13 04:41:23;;;;;;;5.80;1.90;;;7.30;99.90;;;;;;6192637;23;20009;-87
2023/04/13 04:43:49;;;;;;;5.25;2.00;;;7.30;99.90;;;;;;6229442;23;20001;-87
2023/04/13 04:46:15;;;;;;;6.32;2.10;;;7.20;99.90;;;;;;6193187;23;20008;-88
2023/04/13 04:48:41;;;;;;;6.97;2.20;;;7.20;99.90;;;;;;6193440;23;20001;-88
2023/04/13 04:51:07;;;;;;;6.35;2.20;;;7.20;99.90;;;;;;6192784;23;20024;-88
2023/04/13 04:53:38;;;;;;;6.30;2.65;;;7.20;99.90;;;;;;6194004;23;20079;-89
2023/04/13 04:56:05;;;;;;;5.57;2.85;;;7.20;99.90;;;;;;6195699;23;20008;-89
2023/04/13 04:58:31;;;;;;;10.05;3.17;;;7.20;99.90;;;;;;6194727;23;20008;-88
2023/04/13 05:00:56;;;;;;;9.32;3.63;;;7.20;99.90;;;;;;6194023;23;20319;-88
2023/04/13 05:03:22;;;;;;;10.43;3.70;;;7.20;99.90;;;;;;6194102;23;20005;-87
2023/04/13 05:05:48;;;;;;;10.27;4.15;;;7.30;99.90;;;;;;6196934;23;20007;-90
2023/04/13 05:08:14;;;;;;;10.38;4.68;;;7.30;99.90;;;;;;6195563;23;20000;-88
2023/04/13 05:10:51;;;;;;;10.90;4.70;;;7.30;99.90;;;;;;6196916;23;20004;-90
2023/04/13 05:13:16;;;;;;;9.27;4.93;;;7.40;99.90;;;;;;6196419;23;20049;-88
2023/04/13 05:15:42;;;;;;;13.40;5.10;;;7.40;99.90;;;;;;6199742;23;20005;-86
2023/04/13 05:18:11;;;;;;;14.20;5.82;;;7.40;99.90;;;;;;6207642;23;20127;-88
2023/04/13 05:20:37;;;;;;;10.88;4.85;;;7.40;99.90;;;;;;6201680;23;20051;-88
2023/04/13 05:23:03;;;;;;;10.70;4.72;;;7.40;99.90;;;;;;6201301;23;20001;-88
2023/04/13 05:25:29;;;;;;;14.73;5.75;;;7.40;99.90;;;;;;6202154;23;20057;-87
2023/04/13 05:27:55;;;;;;;11.25;4.90;;;7.40;99.90;;;;;;6205409;23;20009;-89
2023/04/13 05:30:21;;;;;;;13.73;5.53;;;7.40;99.90;;;;;;6195138;23;20012;-88
2023/04/13 05:32:56;;;;;;;11.02;4.93;;;7.50;99.90;;;;;;6194999;23;20015;-88
2023/04/13 05:46:24;;;;;;;12.13;5.20;;;7.50;99.90;;;;;;6221879;23;20007;-88
2023/04/13 05:52:12;;;;;;;15.00;5.65;;;7.50;99.90;;;;;;6218175;23;20028;-89
2023/04/13 05:54:38;;;;;;;13.60;4.93;;;7.50;99.90;;;;;;6193826;23;20473;-89
2023/04/13 05:57:04;;;;;;;16.08;4.53;;;7.60;99.90;;;;;;6195474;23;20141;-89
2023/04/13 05:59:30;;;;;;;11.35;4.10;;;7.60;99.90;;;;;;6194728;23;20012;-89
2023/04/13 06:01:56;;;;;;;12.45;4.50;;;7.60;99.90;;;;;;6219024;23;20012;-92
2023/04/13 06:04:22;;;;;;;10.50;4.30;;;7.60;99.90;;;;;;6194929;23;20008;-90
2023/04/13 06:06:48;;;;;;;10.68;4.50;;;7.70;99.90;;;;;;6195292;23;20050;-88
2023/04/13 06:09:14;;;;;;;10.48;4.55;;;7.70;99.90;;;;;;6195623;23;20024;-88
2023/04/13 06:11:40;;;;;;;11.30;5.53;;;7.70;99.90;;;;;;6201359;23;20004;-89
2023/04/13 06:14:06;;;;;;;10.85;4.65;;;7.70;99.90;;;;;;6199251;23;20027;-89
2023/04/13 06:16:32;;;;;;;13.55;6.10;;;7.80;99.90;;;;;;6194052;23;20009;-90
2023/04/13 06:18:58;;;;;;;10.82;5.78;;;7.80;99.90;;;;;;6193523;23;20395;-89
2023/04/13 06:21:26;;;;;;;10.43;4.93;;;7.80;99.90;;;;;;6193651;23;20091;-89
2023/04/13 06:23:52;;;;;;;11.60;5.47;;;7.80;99.90;;;;;;6219175;23;20315;-89
2023/04/13 06:26:18;;;;;;;15.70;6.13;;;7.80;99.90;;;;;;6192877;23;20008;-89
2023/04/13 06:28:46;;;;;;;13.60;6.00;;;7.80;99.90;;;;;;6192322;23;20011;-89
2023/04/13 06:31:12;;;;;;;9.75;5.35;;;7.80;99.90;;;;;;6192467;23;20001;-89
2023/04/13 06:33:38;;;;;;;14.88;6.07;;;7.80;99.90;;;;;;6196674;23;20023;-88
2023/04/13 06:36:07;;;;;;;10.35;5.57;;;7.80;99.90;;;;;;6196227;23;20000;-89
2023/04/13 06:38:33;;;;;;;10.85;5.38;;;7.80;99.90;;;;;;6195679;23;20083;-89
2023/04/13 06:41:02;;;;;;;10.57;5.78;;;7.80;99.90;;;;;;6207752;23;20019;-88
2023/04/13 06:43:28;;;;;;;12.57;5.65;;;7.80;99.90;;;;;;6211423;23;20015;-89
2023/04/13 06:46:00;;;;;;;12.20;5.38;;;7.80;99.90;;;;;;6217187;23;19989;-88
2023/04/13 06:51:36;;;;;;;7.68;4.75;;;7.70;99.90;;;;;;6239060;23;20078;-88
2023/04/13 06:54:02;;;;;;;15.15;5.72;;;7.70;99.90;;;;;;6215550;23;20032;-89
2023/04/13 06:56:28;;;;;;;12.52;5.90;;;7.70;99.90;;;;;;6216806;23;20000;-89
2023/04/13 06:59:00;;;;;;;10.65;5.45;;;7.70;99.90;;;;;;6218318;22;19985;-89
2023/04/13 07:04:39;;;;;;;10.32;3.40;;;7.70;99.90;;;;;;6190713;23;20048;-96
2023/04/13 07:07:04;;;;;;;8.40;3.80;;;7.70;99.90;;;;;;6117864;23;20001;-94
2023/04/13 07:09:30;;;;;;;8.55;2.97;;;7.70;99.90;;;;;;6113511;23;20005;-95
2023/04/13 07:11:56;;;;;;;6.00;2.60;;;7.60;99.90;;;;;;6138011;23;20021;-92
2023/04/13 07:14:22;;;;;;;5.78;2.70;;;7.60;99.90;;;;;;6121628;23;20031;-90
2023/04/13 07:16:48;;;;;;;7.00;2.97;;;7.50;99.90;;;;;;6117783;23;20009;-91
2023/04/13 07:19:13;;;;;;;9.95;4.00;;;7.50;99.90;;;;;;6112406;23;20009;-91
2023/04/13 07:21:39;;;;;;;7.63;3.75;;;7.50;99.90;;;;;;6112499;23;20063;-92
2023/04/13 07:24:05;;;;;;;9.77;4.47;;;7.50;99.90;;;;;;6113769;23;20412;-92
2023/04/13 07:26:31;;;;;;;12.23;4.70;;;7.50;99.90;;;;;;6137176;23;20005;-91
2023/04/13 07:28:56;;;;;;;10.73;4.47;;;7.50;99.90;;;;;;6137320;23;20011;-96
2023/04/13 07:31:22;;;;;;;14.75;5.40;;;7.50;99.90;;;;;;6113684;23;20008;-95
2023/04/13 07:33:48;;;;;;;14.30;4.95;;;7.50;99.90;;;;;;6113468;23;20005;-94
2023/04/13 07:36:13;;;;;;;11.00;3.65;;;7.60;99.90;;;;;;6138026;23;20091;-96
2023/04/13 07:38:39;;;;;;;11.75;4.35;;;7.50;99.90;;;;;;6138109;23;20005;-95
2023/04/13 07:41:06;;;;;;;10.50;3.65;;;7.50;99.90;;;;;;6114021;23;20017;-96
2023/04/13 07:43:33;;;;;;;12.93;4.85;;;7.60;99.90;;;;;;6114363;23;20011;-95
2023/04/13 07:45:59;;;;;;;9.88;3.88;;;7.60;99.90;;;;;;6142334;23;20037;-91
2023/04/13 07:48:25;;;;;;;13.70;4.95;;;7.70;99.90;;;;;;6171452;23;20006;-92
2023/04/13 07:50:51;;;;;;;14.98;4.70;;;7.70;99.90;;;;;;6150940;23;20035;-92
2023/04/13 07:53:17;;;;;;;11.63;4.43;;;7.80;99.90;;;;;;6123477;23;20009;-93
2023/04/13 07:55:43;;;;;;;10.68;4.25;;;7.90;99.90;;;;;;6163320;23;20001;-93
2023/04/13 07:58:08;;;;;;;11.95;3.95;;;7.90;99.90;;;;;;6112732;23;20009;-95
2023/04/13 08:00:34;;;;;;;10.35;3.92;;;8.00;99.90;;;;;;6112293;23;20005;-96
2023/04/13 08:03:00;;;;;;;11.98;4.55;;;8.00;99.90;;;;;;6114288;23;20013;-94
2023/04/13 08:05:26;;;;;;;12.10;4.68;;;8.00;99.90;;;;;;6126695;23;20040;-92
2023/04/13 08:07:52;;;;;;;12.52;5.15;;;8.10;99.90;;;;;;6111768;23;20001;-95
2023/04/13 08:10:17;;;;;;;12.93;4.65;;;8.10;99.90;;;;;;6109110;23;20017;-94
2023/04/13 08:12:43;;;;;;;15.40;5.20;;;8.10;99.90;;;;;;6133876;23;20009;-94
2023/04/13 08:15:09;;;;;;;10.18;4.10;;;8.20;99.90;;;;;;6108700;23;20005;-94
2023/04/13 08:17:35;;;;;;;10.15;4.10;;;8.30;99.90;;;;;;6132616;23;20040;-95
2023/04/13 08:20:01;;;;;;;15.48;4.35;;;8.40;99.90;;;;;;6108315;23;20009;-95
2023/04/13 08:22:27;;;;;;;15.27;5.55;;;8.40;99.90;;;;;;6109480;23;20059;-94
2023/04/13 08:24:53;;;;;;;10.70;4.15;;;8.40;99.90;;;;;;6112028;23;20006;-91
2023/04/13 08:27:19;;;;;;;14.60;3.90;;;8.50;99.90;;;;;;6133795;23;20002;-93
2023/04/13 08:29:45;;;;;;;15.00;4.68;;;8.50;99.90;;;;;;6108249;23;20104;-92
2023/04/13 08:32:11;;;;;;;16.08;4.60;;;8.60;99.90;;;;;;6107234;23;20096;-91
2023/04/13 08:34:37;;;;;;;14.63;4.25;;;8.60;99.90;;;;;;6107154;23;20045;-91
2023/04/13 08:37:02;;;;;;;13.80;3.92;;;8.60;99.90;;;;;;6149546;23;20029;-95
2023/04/13 08:39:28;;;;;;;13.45;4.55;;;8.60;99.90;;;;;;6129555;23;20078;-93
2023/04/13 08:41:54;;;;;;;11.95;3.42;;;8.70;99.90;;;;;;6129407;23;19990;-93
2023/04/13 08:44:20;;;;;;;12.90;3.50;;;8.70;99.90;;;;;;6127505;23;20089;-93
2023/04/13 08:46:47;;;;;;;13.88;3.20;;;8.70;99.90;;;;;;6125453;23;20028;-93
2023/04/13 08:49:13;;;;;;;18.42;5.32;;;8.80;99.90;;;;;;6124027;23;20055;-93
2023/04/13 08:51:42;;;;;;;16.92;3.13;;;8.80;99.90;;;;;;6122648;23;20010;-93
2023/04/13 08:54:23;;;;;;;16.48;3.97;;;8.80;99.90;;;;;;6121749;23;20005;-92
2023/04/13 08:56:49;;;;;;;10.88;2.65;;;8.80;99.90;;;;;;6115069;23;20101;-93
2023/04/13 08:59:26;;;;;;;14.30;3.33;;;8.90;99.90;;;;;;6107909;23;20002;-92
2023/04/13 09:01:53;;;;;;;16.95;3.30;;;8.90;99.90;;;;;;6131442;23;20037;-91
2023/04/13 09:04:30;;;;;;;13.95;3.55;;;8.80;99.90;;;;;;6130799;23;20016;-90
2023/04/13 09:06:58;;;;;;;19.83;3.95;;;8.90;99.90;;;;;;6185878;23;20413;-91
2023/04/13 09:09:25;;;;;;;14.02;3.42;;;8.90;99.90;;;;;;6160794;23;20436;-90
2023/04/13 09:11:50;;;;;;;16.27;3.40;;;8.90;99.90;;;;;;6136479;23;20009;-89
2023/04/13 09:14:19;;;;;;;15.07;3.47;;;9.00;99.90;;;;;;6136305;23;20096;-92
2023/04/13 09:16:47;;;;;;;16.98;2.90;;;9.00;99.90;;;;;;6136239;23;20005;-93
2023/04/13 09:19:12;;;;;;;13.38;2.78;;;9.00;99.90;;;;;;6160849;23;20009;-94
2023/04/13 09:21:41;;;;;;;15.93;3.22;;;9.00;99.90;;;;;;6161008;23;20448;-94
2023/04/13 09:24:08;;;;;;;11.45;3.45;;;9.10;99.90;;;;;;6160978;23;20317;-94
2023/04/13 09:26:47;;;;;;;15.45;3.28;;;9.20;99.90;;;;;;6187098;23;20012;-95
2023/04/13 09:29:21;;;;;;;16.83;2.70;;;9.20;99.90;;;;;;6186569;23;20005;-95
2023/04/13 09:31:47;;;;;;;15.00;3.05;;;9.20;99.90;;;;;;6186226;23;20005;-95
2023/04/13 09:34:14;;;;;;;15.68;3.13;;;9.30;99.90;;;;;;6162473;23;20087;-96
2023/04/13 09:36:40;;;;;;;11.98;1.88;;;9.30;99.90;;;;;;6137769;23;20097;-94
2023/04/13 09:39:06;;;;;;;10.90;1.92;;;9.40;99.90;;;;;;6188528;23;20000;-95
2023/04/13 09:41:35;;;;;;;15.70;2.85;;;9.40;99.90;;;;;;6138967;23;20012;-95
2023/04/13 09:44:02;;;;;;;11.35;2.40;;;9.50;99.90;;;;;;6179950;23;20029;-95
2023/04/13 09:46:28;;;;;;;14.40;3.03;;;9.50;99.90;;;;;;6181492;23;20036;-94
2023/04/13 09:49:02;;;;;;;11.27;2.08;;;9.60;99.90;;;;;;6155646;23;20009;-92
2023/04/13 09:51:40;;;;;;;14.73;2.30;;;9.70;99.90;;;;;;6199555;23;20089;-94
2023/04/13 09:54:10;;;;;;;14.35;2.30;;;9.70;99.90;;;;;;6189111;23;20087;-95
2023/04/13 09:56:44;;;;;;;12.40;2.17;;;9.80;99.90;;;;;;6188448;23;19997;-90
2023/04/13 09:59:10;;;;;;;13.48;1.80;;;9.90;99.90;;;;;;6187909;23;20420;-93
2023/04/13 10:01:40;;;;;;;12.52;2.30;;;10.00;99.90;;;;;;6187889;23;20004;-93
2023/04/13 10:04:09;;;;;;;14.25;3.20;;;10.10;99.90;;;;;;6187548;23;20013;-92
2023/04/13 10:06:40;;;;;;;11.13;2.30;;;10.20;99.90;;;;;;6166249;23;20002;-93
2023/04/13 10:09:06;;;;;;;17.58;3.40;;;10.30;99.90;;;;;;6189959;23;20009;-92
2023/04/13 10:11:45;;;;;;;13.27;2.85;;;10.40;99.90;;;;;;6164436;23;20015;-92
2023/04/13 10:14:15;;;;;;;11.57;3.47;;;10.50;99.90;;;;;;6187857;23;20421;-93
2023/04/13 10:16:41;;;;;;;10.50;2.22;;;10.50;99.90;;;;;;6187693;23;20005;-91
2023/04/13 10:19:19;;;;;;;12.18;2.10;;;10.50;99.90;;;;;;6187858;23;20091;-91
2023/04/13 10:21:46;;;;;;;12.07;2.63;;;10.50;99.90;;;;;;6187314;23;20000;-91
2023/04/13 10:24:13;;;;;;;14.07;2.30;;;10.60;99.90;;;;;;6187686;23;20025;-91
2023/04/13 10:26:40;;;;;;;13.45;3.53;;;10.60;99.90;;;;;;6163044;23;20025;-91
2023/04/13 10:29:07;;;;;;;10.10;1.90;;;10.70;99.90;;;;;;6187474;23;20027;-92
2023/04/13 10:31:41;;;;;;;16.67;2.97;;;10.80;99.90;;;;;;6163179;23;20274;-92
2023/04/13 10:34:08;;;;;;;12.43;2.15;;;10.80;99.90;;;;;;6141466;23;20140;-92
2023/04/13 10:36:39;;;;;;;13.15;2.85;;;10.80;99.90;;;;;;6190770;23;20001;-93
2023/04/13 10:39:05;;;;;;;13.55;3.13;;;10.70;99.90;;;;;;6190220;23;20001;-91
2023/04/13 10:41:30;;;;;;;12.73;2.42;;;10.70;99.90;;;;;;6164322;23;20015;-92
2023/04/13 10:44:07;;;;;;;8.55;1.85;;;10.60;99.90;;;;;;6162645;23;20096;-92
2023/04/13 10:46:36;;;;;;;16.75;2.30;;;10.50;99.90;;;;;;6187065;23;20010;-91
2023/04/13 10:49:03;;;;;;;13.15;2.70;;;10.40;99.90;;;;;;6187580;23;20412;-93
2023/04/13 10:51:43;;;;;;;15.10;2.72;;;10.30;99.90;;;;;;6186485;23;20368;-92
2023/04/13 10:54:12;;;;;;;10.70;2.10;;;10.30;99.90;;;;;;6162175;23;20006;-92
2023/04/13 10:56:39;;;;;;;15.57;2.97;;;10.30;99.90;;;;;;6187393;23;20021;-93
2023/04/13 10:59:05;;;;;;;12.48;2.50;;;10.30;99.90;;;;;;6162794;23;20505;-92
2023/04/13 11:01:31;;;;;;;12.85;2.75;;;10.40;99.90;;;;;;6161918;23;19997;-91
2023/04/13 11:04:03;;;;;;;13.10;2.33;;;10.40;99.90;;;;;;6161392;23;20048;-91
2023/04/13 11:06:35;;;;;;;8.82;1.83;;;10.50;99.90;;;;;;6186654;23;20001;-93
2023/04/13 11:09:05;;;;;;;12.68;1.90;;;10.40;99.90;;;;;;6162352;23;20005;-94
2023/04/13 11:11:32;;;;;;;14.57;2.22;;;10.40;99.90;;;;;;6186859;23;20004;-95
2023/04/13 11:13:57;;;;;;;15.43;2.50;;;10.30;99.90;;;;;;6162406;23;20060;-93
2023/04/13 11:16:23;;;;;;;12.57;2.10;;;10.30;99.90;;;;;;6137519;23;20040;-93
2023/04/13 11:19:00;;;;;;;10.60;2.22;;;10.40;99.90;;;;;;6137793;23;20103;-90
2023/04/13 11:21:26;;;;;;;12.07;2.00;;;10.40;99.90;;;;;;6163002;23;20009;-92
2023/04/13 11:23:53;;;;;;;19.17;2.55;;;10.40;99.90;;;;;;6168328;23;20451;-91
2023/04/13 11:26:38;;;;;;;14.68;2.20;;;10.40;99.90;;;;;;6137814;23;20005;-91
2023/04/13 11:29:04;;;;;;;13.35;2.20;;;10.50;99.90;;;;;;6186559;23;19997;-91
2023/04/13 11:31:39;;;;;;;10.63;2.30;;;10.50;99.90;;;;;;6161789;23;20120;-91
2023/04/13 11:34:10;;;;;;;13.73;3.10;;;10.60;99.90;;;;;;6185602;23;20005;-92
2023/04/13 11:36:38;;;;;;;11.07;2.10;;;10.60;99.90;;;;;;6186162;23;20004;-93
2023/04/13 11:39:34;;;;;;;26.60;4.47;;;10.60;99.90;;;;;;6161879;23;20012;-92
2023/04/13 11:42:09;;;;;;;13.30;2.78;;;10.70;99.90;;;;;;6186046;23;20329;-92
2023/04/13 11:44:35;;;;;;;13.75;2.40;;;10.80;99.90;;;;;;6185918;23;20001;-92
2023/04/13 11:47:02;;;;;;;14.07;2.38;;;10.80;99.90;;;;;;6186115;23;19997;-91
2023/04/13 11:49:30;;;;;;;11.70;2.13;;;11.00;99.90;;;;;;6185999;23;20138;-92
2023/04/13 11:51:57;;;;;;;10.02;1.70;;;11.00;99.90;;;;;;6161385;23;20447;-91
2023/04/13 11:54:23;;;;;;;10.90;2.08;;;11.10;99.90;;;;;;6137013;23;20012;-91
2023/04/13 11:56:49;;;;;;;13.65;2.55;;;11.10;99.90;;;;;;6137376;23;20490;-91
2023/04/13 11:59:15;;;;;;;10.10;2.17;;;11.20;99.90;;;;;;6163371;23;20009;-92
2023/04/13 12:01:50;;;;;;;11.95;2.08;;;11.20;99.90;;;;;;6164635;23;20435;-91
2023/04/13 12:04:17;;;;;;;7.03;2.15;;;11.30;99.90;;;;;;6189753;23;20017;-90
2023/04/13 12:06:46;;;;;;;9.70;2.13;;;11.40;99.90;;;;;;6192221;23;20005;-91
2023/04/13 12:09:11;;;;;;;14.80;2.63;;;11.50;99.90;;;;;;6190286;23;20028;-92
2023/04/13 12:11:42;;;;;;;12.45;2.10;;;11.60;99.90;;;;;;6165276;23;20001;-92
2023/04/13 12:14:17;;;;;;;;;;;11.60;99.90;;;;;;6165776;23;20015;-93
2023/04/13 12:16:47;;;;;;;8.60;1.90;;;11.70;99.90;;;;;;6187638;23;19915;-95
2023/04/13 12:19:12;;;;;;;7.80;1.55;;;11.80;99.90;;;;;;6163361;23;20009;-95
2023/04/13 12:21:48;;;;;;;11.20;1.98;;;11.80;99.90;;;;;;6138379;23;20309;-94
2023/04/13 12:24:14;;;;;;;10.07;2.08;;;12.00;99.90;;;;;;6188221;23;20005;-95
2023/04/13 12:26:40;;;;;;;9.02;2.03;;;12.00;99.90;;;;;;6190602;23;20083;-94
2023/04/13 12:29:07;;;;;;;12.27;2.88;;;12.00;99.90;;;;;;6189948;23;19997;-95
2023/04/13 12:31:37;;;;;;;8.23;2.25;;;12.00;99.90;;;;;;6188511;23;19997;-94
2023/04/13 12:34:05;;;;;;;9.57;2.25;;;12.00;99.90;;;;;;6188905;23;20076;-95
2023/04/13 12:36:32;;;;;;;8.68;2.45;;;12.10;99.90;;;;;;6189312;23;20008;-95
2023/04/13 12:39:02;;;;;;;8.05;1.60;;;12.20;99.90;;;;;;6192827;23;20001;-94
2023/04/13 12:41:27;;;;;;;8.63;1.80;;;12.30;99.90;;;;;;6171972;23;20151;-95
2023/04/13 12:43:53;;;;;;;12.60;2.00;;;12.40;99.90;;;;;;6166263;23;20001;-95
2023/04/13 12:46:19;;;;;;;8.65;2.17;;;12.50;99.90;;;;;;6187947;23;20436;-92
2023/04/13 12:48:45;;;;;;;13.52;2.03;;;12.60;99.90;;;;;;6185930;23;20072;-93
2023/04/13 12:51:11;;;;;;;8.95;2.13;;;12.70;99.90;;;;;;6195449;23;20033;-94
2023/04/13 12:53:37;;;;;;;7.35;1.63;;;12.70;99.90;;;;;;6207490;23;20052;-95
2023/04/13 12:56:09;;;;;;;7.10;2.20;;;12.80;99.90;;;;;;6166174;23;19997;-95
2023/04/13 12:58:50;;;;;;;10.57;2.33;;;12.80;99.90;;;;;;6137306;23;20039;-95
2023/04/13 13:01:16;;;;;;;8.02;2.05;;;12.80;99.90;;;;;;6136977;23;20018;-96
2023/04/13 13:03:45;;;;;;;9.65;1.88;;;12.80;99.90;;;;;;6144846;23;20067;-90
2023/04/13 13:06:11;;;;;;;8.02;1.70;;;12.70;99.90;;;;;;6141844;23;20025;-91
2023/04/13 13:08:53;;;;;;;12.73;1.90;;;12.80;99.90;;;;;;6161401;23;20009;-91
2023/04/13 13:11:26;;;;;;;9.70;1.85;;;12.70;99.90;;;;;;6137878;23;20032;-91
2023/04/13 13:13:55;;;;;;;9.35;2.38;;;12.70;99.90;;;;;;6163287;23;20009;-91
2023/04/13 13:16:21;;;;;;;7.78;1.92;;;12.70;99.90;;;;;;6164718;23;20012;-94
2023/04/13 13:18:46;;;;;;;11.32;2.40;;;12.80;99.90;;;;;;6165119;23;20013;-94
2023/04/13 13:21:12;;;;;;;9.40;1.95;;;13.00;99.90;;;;;;6167213;23;20009;-92